Flight Track Log - Related Links

Times and Time Zones

All times are in EDT time to prevent confusion due to time zone crossing. See the SWA655 flight status page for this flight to view local times or setup timezone preferences in your user account.

Time Position Orientation Groundspeed Altitude Reporting Facility
EDT Latitude Longitude Course Direction KTS MPH feet Rate Location/Type
Mon 02:24:01 PM 33.6525 -117.8817 320° Northwest 142 163 38,000  Level Los Center
Mon 02:25:03 PM 33.6081 -117.8950 194° South 157 181 2,600 -16,887 Descending Los Center
Mon 02:26:05 PM 33.5600 -117.9036 188° South 167 192 3,100 1,306 Climbing Los Center
Mon 02:27:07 PM 33.5106 -117.9536 220° Southwest 228 262 5,300 2,903 Climbing Los Center
Mon 02:28:09 PM 33.4856 -118.0417 251° West 261 300 9,100 3,097 Climbing Los Center
Mon 02:29:00 PM 34.0649 -118.2616 320° Northwest  Level Estimated
Mon 02:29:11 PM 33.4572 -118.1378 251° West 294 338 11,700  Level Los Center
Mon 02:30:14 PM 33.4247 -118.2483 251° West 341 392 15,300 3,120 Climbing Los Center
Mon 02:31:16 PM 33.4206 -118.3689 268° West 375 432 18,200 2,419 Climbing Los Center
Mon 02:32:18 PM 33.5347 -118.4236 338° Northwest 391 450 20,300 2,177 Climbing Los Center
Mon 02:33:20 PM 33.6472 -118.4264 359° North 401 461 22,700 1,790 Climbing Los Center
Mon 02:34:22 PM 33.7706 -118.4303 358° North 423 487 24,000 1,248 Climbing Los Center
Mon 02:35:25 PM 33.8917 -118.4328 359° North 426 490 25,300 1,742 Climbing Los Center
Mon 02:36:26 PM 34.0072 -118.4689 345° North 436 502 27,600 1,317 Climbing Los Center
Mon 02:37:28 PM 34.1203 -118.5247 338° Northwest 442 509 28,000 194 Climbing Los Center
Mon 02:38:30 PM 34.2342 -118.5806 338° Northwest 442 509 28,000 726 Level Los Center
Mon 02:39:32 PM 34.3706 -118.6483 338° Northwest 443 510 29,500 1,632 Climbing Los Center
Mon 02:40:35 PM 34.4878 -118.7042 339° North 449 517 31,400 1,920 Climbing Los Center
Mon 02:41:37 PM 34.6033 -118.7611 338° Northwest 451 519 33,500 1,839 Climbing Los Center
Mon 02:42:39 PM 34.7186 -118.8203 337° Northwest 451 519 35,200 1,500 Climbing Los Center
Mon 02:43:41 PM 34.8306 -118.8875 334° Northwest 448 516 36,600 1,355 Climbing Los Center
Mon 02:44:43 PM 34.9314 -118.9864 321° Northwest 449 517 38,000 677 Climbing Los Center
Mon 02:45:45 PM 35.0275 -119.0806 321° Northwest 446 513 38,000  Level Los Center
Mon 02:46:47 PM 35.1444 -119.1928 322° Northwest 446 513 38,000  Level Los Center
Mon 02:48:02 PM 35.2594 -119.3050 321° Northwest 442 509 38,000  Level Los Center
Mon 02:49:04 PM 35.3539 -119.3997 321° Northwest 438 504 38,000  Level Los Center
Mon 02:50:06 PM 35.4489 -119.4931 321° Northwest 438 504 38,000  Level Los Center
Mon 02:51:08 PM 35.5439 -119.5886 321° Northwest 441 507 38,000  Level Los Center
Mon 02:52:10 PM 35.6567 -119.6997 321° Northwest 437 503 38,000  Level Los Center
Mon 02:53:12 PM 35.7497 -119.7931 321° Northwest 441 507 38,000  Level Oakland Center
Mon 02:54:13 PM 35.8447 -119.8897 320° Northwest 446 513 38,000  Level Oakland Center
Mon 02:55:14 PM 35.9389 -119.9853 321° Northwest 445 512 38,000  Level Oakland Center
Mon 02:56:16 PM 36.0336 -120.0794 321° Northwest 439 505 38,000  Level Oakland Center
Mon 02:57:17 PM 36.1283 -120.1747 321° Northwest 442 509 38,000 -1,377 Level Oakland Center
Mon 02:58:18 PM 36.2447 -120.2928 321° Northwest 453 521 35,200 -2,683 Descending Oakland Center
Mon 02:59:20 PM 36.3453 -120.3967 320° Northwest 470 541 32,500 -2,634 Descending Oakland Center
Mon 03:00:21 PM 36.4431 -120.4997 320° Northwest 464 534 29,800 -2,311 Descending Oakland Center
Mon 03:01:22 PM 36.5375 -120.5983 320° Northwest 447 514 27,800 -1,951 Descending Oakland Center
Mon 03:02:24 PM 36.6286 -120.6894 321° Northwest 423 487 25,800 -1,902 Descending Oakland Center
Mon 03:03:25 PM 36.7144 -120.7797 320° Northwest 406 467 23,900 -1,805 Descending Oakland Center
Mon 03:04:27 PM 36.7950 -120.8708 318° Northwest 396 456 22,100 -1,756 Descending Oakland Center
Mon 03:05:28 PM 36.8750 -120.9617 318° Northwest 376 433 20,300 -1,721 Descending Oakland Center
Mon 03:06:29 PM 36.9475 -121.0444 318° Northwest 360 414 18,600 -1,610 Descending Oakland Center
Mon 03:07:31 PM 37.0181 -121.1231 318° Northwest 346 398 17,000 -1,659 Descending Oakland Center
Mon 03:08:32 PM 37.0850 -121.2053 316° Northwest 339 390 15,200 -1,805 Descending Oakland Center
Mon 03:09:34 PM 37.1675 -121.2975 318° Northwest 331 381 13,300 -1,951 Descending Oakland Center
Mon 03:10:35 PM 37.2342 -121.3753 317° Northwest 327 376 11,200 -1,672 Descending Oakland Center
Mon 03:11:36 PM 37.3008 -121.4539 317° Northwest 327 376 9,900 -1,268 Descending Oakland Center
Mon 03:12:38 PM 37.3597 -121.5233 317° Northwest 298 343 8,600 -1,246 Descending Oakland Center
Mon 03:13:46 PM 37.4333 -121.6167 315° West 293 337 7,200 -1,070 Descending Northern TRACON
Mon 03:14:47 PM 37.4833 -121.6833 313° West 280 322 6,300 -650 Descending Northern TRACON
Mon 03:15:46 PM 37.5000 -121.7667 284° West 242 278 5,900 -605 Descending Northern TRACON
Mon 03:16:46 PM 37.5333 -121.8500 297° West 229 264 5,100 -496 Descending Northern TRACON
Mon 03:17:47 PM 37.5500 -121.9167 288° West 211 243 4,900 -645 Descending Northern TRACON
Mon 03:18:47 PM 37.5833 -121.9833 302° West 221 254 3,800 -850 Descending Northern TRACON
Mon 03:19:47 PM 37.6000 -122.0500 288° West 217 250 3,200 -864 Descending Northern TRACON
Mon 03:20:52 PM 37.6333 -122.1167 302° West 202 232 2,000 -976 Descending Northern TRACON
Mon 03:21:50 PM 37.6650 -122.1589 313° West 193 222 1,200 -807 Descending Oakland Center
Mon 03:22:51 PM 37.6889 -122.1953 310° West 161 185 400 9,171 Descending Oakland Center
Mon 03:23:53 PM 37.7111 -122.2281 311° West 139 160 20,000 18,968 Climbing Oakland Center
Mon 03:26:00 PM 37.7167 -122.2167 270° West  Level FlightAware

Login

Don't have an account? Register now (free) for customized features, flight alerts, and more!